createdAt,value
2018-05-11T00:00:59.432Z,38.10
2018-05-11T00:03:29.850Z,38.10
2018-05-11T00:06:00.288Z,38.20
2018-05-11T00:08:30.894Z,38.20
2018-05-11T00:11:01.537Z,38.30
2018-05-11T00:13:31.954Z,38.30
2018-05-11T00:16:02.394Z,38.20
2018-05-11T00:18:32.795Z,38.00
2018-05-11T00:21:04.212Z,38.00
2018-05-11T00:23:34.740Z,38.00
2018-05-11T00:26:05.251Z,38.00
2018-05-11T00:28:35.662Z,38.00
2018-05-11T00:31:06.103Z,38.00
2018-05-11T00:33:36.500Z,37.90
2018-05-11T00:36:07.697Z,38.00
2018-05-11T00:38:38.095Z,37.90
2018-05-11T00:41:09.308Z,37.80
2018-05-11T00:43:39.716Z,37.80
2018-05-11T00:46:10.351Z,37.70
2018-05-11T00:48:40.767Z,37.80
2018-05-11T00:51:11.305Z,37.80
2018-05-11T00:53:41.795Z,37.70
2018-05-11T00:56:12.215Z,37.70
2018-05-11T00:58:42.626Z,37.80
2018-05-11T01:01:14.022Z,37.70
2018-05-11T01:03:44.448Z,38.30
2018-05-11T01:06:14.853Z,37.60
2018-05-11T01:08:45.273Z,37.70
2018-05-11T01:11:15.707Z,37.60
2018-05-11T01:13:46.112Z,37.60
2018-05-11T01:16:17.327Z,37.70
2018-05-11T01:18:47.924Z,37.70
2018-05-11T01:21:18.551Z,37.60
2018-05-11T01:23:49.191Z,37.70
2018-05-11T01:26:19.823Z,37.80
2018-05-11T01:28:50.236Z,37.90
2018-05-11T01:31:21.419Z,37.90
2018-05-11T01:33:52.023Z,37.80
2018-05-11T01:36:22.649Z,37.90
2018-05-11T01:38:53.073Z,37.80
2018-05-11T01:41:24.270Z,37.70
2018-05-11T01:43:54.671Z,37.60
2018-05-11T01:46:25.112Z,37.90
2018-05-11T01:48:55.638Z,38.70
2018-05-11T01:51:26.207Z,38.70
2018-05-11T01:53:57.658Z,37.80
2018-05-11T01:56:27.854Z,38.20
2018-05-11T01:58:58.249Z,38.10
2018-05-11T02:01:28.887Z,38.00
2018-05-11T02:03:59.290Z,38.00
2018-05-11T02:06:30.495Z,38.00
2018-05-11T02:09:00.894Z,37.90
2018-05-11T02:11:31.319Z,37.70
2018-05-11T02:14:01.735Z,37.70
2018-05-11T02:16:33.128Z,37.70
2018-05-11T02:19:03.539Z,37.70
2018-05-11T02:21:34.200Z,37.60
2018-05-11T02:24:04.587Z,37.60
2018-05-11T02:26:35.017Z,37.60
2018-05-11T02:29:06.179Z,37.70
2018-05-11T02:31:36.625Z,37.50
2018-05-11T02:34:07.236Z,37.60
2018-05-11T02:36:38.294Z,37.60
2018-05-11T02:39:08.224Z,37.50
2018-05-11T02:41:38.082Z,37.50
2018-05-11T02:44:09.276Z,37.50
2018-05-11T02:46:39.698Z,37.50
2018-05-11T02:49:10.114Z,37.50
2018-05-11T02:51:40.555Z,37.50
2018-05-11T02:54:10.976Z,37.50
2018-05-11T02:56:41.411Z,37.50
2018-05-11T02:59:12.048Z,37.40
2018-05-11T03:01:42.485Z,37.50
2018-05-11T03:04:12.881Z,37.40
2018-05-11T03:06:43.353Z,37.50
2018-05-11T03:09:13.774Z,37.50
2018-05-11T03:11:44.403Z,37.40
2018-05-11T03:14:14.843Z,37.30
2018-05-11T03:16:45.283Z,37.40
2018-05-11T03:19:15.690Z,37.50
2018-05-11T03:21:46.326Z,37.50
2018-05-11T03:24:16.940Z,37.40
2018-05-11T03:26:47.475Z,37.30
2018-05-11T03:29:18.023Z,37.30
2018-05-11T03:31:48.658Z,37.30
2018-05-11T03:34:19.083Z,37.20
2018-05-11T03:36:49.518Z,37.20
2018-05-11T03:39:19.711Z,37.10
2018-05-11T03:41:50.339Z,37.10
2018-05-11T03:44:20.758Z,37.10
2018-05-11T03:46:51.199Z,37.10
2018-05-11T03:49:21.798Z,37.10
2018-05-11T03:51:53.011Z,36.90
2018-05-11T03:54:23.409Z,36.80
2018-05-11T03:56:53.843Z,36.90
2018-05-11T03:59:24.261Z,36.90
2018-05-11T04:02:11.774Z,36.90
2018-05-11T04:04:59.315Z,36.90
2018-05-11T04:07:46.851Z,36.90
2018-05-11T04:10:17.261Z,36.90
2018-05-11T04:12:48.451Z,36.80
2018-05-11T04:15:18.871Z,36.80
2018-05-11T04:17:49.313Z,36.70
2018-05-11T04:20:19.750Z,36.70
2018-05-11T04:22:50.208Z,36.70
2018-05-11T04:25:22.287Z,36.70
2018-05-11T04:27:53.246Z,36.60
2018-05-11T04:30:23.622Z,36.60
2018-05-11T04:32:54.085Z,36.60
2018-05-11T04:35:25.256Z,36.50
2018-05-11T04:37:55.671Z,36.50
2018-05-11T04:40:26.096Z,36.50
2018-05-11T04:42:56.544Z,36.60
2018-05-11T04:45:26.938Z,36.50
2018-05-11T04:47:58.338Z,36.60
2018-05-11T04:50:28.738Z,36.60
2018-05-11T04:52:58.871Z,36.60
2018-05-11T04:55:29.283Z,36.70
2018-05-11T04:57:59.378Z,36.70
2018-05-11T05:00:30.047Z,37.20
2018-05-11T05:03:00.767Z,36.70
2018-05-11T05:05:31.412Z,37.20
2018-05-11T05:08:02.078Z,36.50
2018-05-11T05:10:32.719Z,36.60
2018-05-11T05:13:03.390Z,36.90
2018-05-11T05:15:34.100Z,36.80
2018-05-11T05:18:04.797Z,37.10
2018-05-11T05:20:35.411Z,37.10
2018-05-11T05:23:05.495Z,37.20
2018-05-11T05:25:35.590Z,37.10
2018-05-11T05:28:06.215Z,37.10
2018-05-11T05:30:36.851Z,37.10
2018-05-11T05:33:07.539Z,37.10
2018-05-11T05:35:38.290Z,37.20
2018-05-11T05:38:08.926Z,37.20
2018-05-11T05:40:39.539Z,37.20
2018-05-11T05:43:10.718Z,37.10
2018-05-11T05:45:41.090Z,37.10
2018-05-11T05:48:11.720Z,37.00
2018-05-11T05:50:41.783Z,37.00
2018-05-11T05:53:12.451Z,37.00
2018-05-11T05:55:43.167Z,37.00
2018-05-11T05:58:13.893Z,37.00
2018-05-11T06:00:44.595Z,37.10
2018-05-11T06:03:15.815Z,37.20
2018-05-11T06:05:45.881Z,37.20
2018-05-11T06:08:17.300Z,37.30
2018-05-11T06:10:48.515Z,37.10
2018-05-11T06:13:19.672Z,37.10
2018-05-11T06:15:50.403Z,37.00
2018-05-11T06:18:21.046Z,37.00
2018-05-11T06:20:51.644Z,37.00
2018-05-11T06:23:22.222Z,37.10
2018-05-11T06:25:52.298Z,37.10
2018-05-11T06:28:23.020Z,37.00
2018-05-11T06:30:52.838Z,37.00
2018-05-11T06:33:24.244Z,37.10
2018-05-11T06:35:54.322Z,37.00
2018-05-11T06:38:24.942Z,37.10
2018-05-11T06:40:55.007Z,37.20
2018-05-11T06:43:25.446Z,37.30
2018-05-11T06:45:56.300Z,37.50
2018-05-11T06:48:27.115Z,37.40
2018-05-11T06:50:58.548Z,37.70
2018-05-11T06:53:29.204Z,37.60
2018-05-11T06:55:59.912Z,37.80
2018-05-11T06:58:30.635Z,37.80
2018-05-11T07:01:02.113Z,39.70
2018-05-11T07:03:33.579Z,39.80
2018-05-11T07:06:05.955Z,39.60
2018-05-11T07:08:36.078Z,39.50
2018-05-11T07:11:06.395Z,40.20
2018-05-11T07:13:36.495Z,40.00
2018-05-11T07:16:07.700Z,39.80
2018-05-11T07:18:38.429Z,40.30
2018-05-11T07:21:08.911Z,39.10
2018-05-11T07:23:39.643Z,38.90
2018-05-11T07:26:11.107Z,38.70
2018-05-11T07:28:41.837Z,38.70
2018-05-11T07:31:13.274Z,38.80
2018-05-11T07:33:43.932Z,38.40
2018-05-11T07:36:14.555Z,38.30
2018-05-11T07:38:45.217Z,38.30
2018-05-11T07:41:15.885Z,38.40
2018-05-11T07:43:47.524Z,38.40
2018-05-11T07:46:19.155Z,38.40
2018-05-11T07:48:49.813Z,38.40
2018-05-11T07:51:21.220Z,38.40
2018-05-11T07:53:51.675Z,38.30
2018-05-11T07:56:23.102Z,38.40
2018-05-11T07:58:54.417Z,38.30
2018-05-11T08:01:25.054Z,38.30
2018-05-11T08:03:55.612Z,38.40
2018-05-11T08:06:26.111Z,38.30
2018-05-11T08:08:56.787Z,38.40
2018-05-11T08:11:27.610Z,38.40
2018-05-11T08:13:58.047Z,38.20
2018-05-11T08:16:28.668Z,38.30
2018-05-11T08:18:58.784Z,38.40
2018-05-11T08:21:29.423Z,38.50
2018-05-11T08:24:00.281Z,38.60
2018-05-11T08:26:30.691Z,38.50
2018-05-11T08:29:01.567Z,38.60
2018-05-11T08:31:32.407Z,38.50
2018-05-11T08:34:02.499Z,38.50
2018-05-11T08:36:32.906Z,38.50
2018-05-11T08:39:03.119Z,38.50
2018-05-11T08:41:33.191Z,38.40
2018-05-11T08:44:03.624Z,38.50
2018-05-11T08:46:34.031Z,38.60
2018-05-11T08:49:04.139Z,38.50
2018-05-11T08:51:34.542Z,38.50
2018-05-11T08:54:04.642Z,38.40
2018-05-11T08:56:35.325Z,38.40
2018-05-11T08:59:05.959Z,38.40
2018-05-11T09:01:36.357Z,38.30
2018-05-11T09:04:06.454Z,38.40
2018-05-11T09:06:36.862Z,38.40
2018-05-11T09:09:06.233Z,38.40
2018-05-11T09:11:37.679Z,38.50
2018-05-11T09:14:08.923Z,38.60
2018-05-11T09:16:38.993Z,38.40
2018-05-11T09:19:09.482Z,38.50
2018-05-11T09:21:40.393Z,38.60
2018-05-11T09:24:10.812Z,38.60
2018-05-11T09:26:40.882Z,38.70
2018-05-11T09:29:11.339Z,38.80
2018-05-11T09:31:41.995Z,38.80
2018-05-11T09:34:13.068Z,38.70
2018-05-11T09:36:43.478Z,38.60
2018-05-11T09:39:13.659Z,38.60
2018-05-11T09:41:44.066Z,39.30
2018-05-11T09:44:14.966Z,38.80
2018-05-11T09:46:45.022Z,38.80
2018-05-11T09:49:15.455Z,38.80
2018-05-11T09:51:46.287Z,38.90
2018-05-11T09:54:16.370Z,38.80
2018-05-11T09:56:47.068Z,39.00
2018-05-11T10:02:01.985Z,39.90
2018-05-11T10:04:40.034Z,40.80
2018-05-11T10:07:10.870Z,41.40
2018-05-11T10:09:41.510Z,40.90
2018-05-11T10:12:12.343Z,41.20
2018-05-11T10:14:42.776Z,41.20
2018-05-11T10:17:13.606Z,41.30
2018-05-11T10:19:43.723Z,41.20
2018-05-11T10:22:14.453Z,41.30
2018-05-11T10:24:44.903Z,41.30
2018-05-11T10:27:15.744Z,41.30
2018-05-11T10:29:45.848Z,41.30
2018-05-11T10:32:16.459Z,41.30
2018-05-11T10:34:46.568Z,41.20
2018-05-11T10:37:16.630Z,41.20
2018-05-11T10:39:47.523Z,41.30
2018-05-11T10:42:17.783Z,41.20
2018-05-11T10:44:49.271Z,41.30
2018-05-11T10:47:19.347Z,41.20
2018-05-11T10:49:50.299Z,41.20
2018-05-11T10:52:20.390Z,41.20
2018-05-11T10:54:50.495Z,41.20
2018-05-11T10:57:20.663Z,41.10
2018-05-11T10:59:50.763Z,41.20
2018-05-11T11:02:21.680Z,41.20
2018-05-11T11:04:52.496Z,41.10
2018-05-11T11:07:22.563Z,41.20
2018-05-11T11:09:52.652Z,41.10
2018-05-11T11:12:22.718Z,41.10
2018-05-11T11:14:53.583Z,41.20
2018-05-11T11:17:23.759Z,41.00
2018-05-11T11:19:53.860Z,41.00
2018-05-11T11:22:24.679Z,41.10
2018-05-11T11:24:54.799Z,41.10
2018-05-11T11:27:25.407Z,41.10
2018-05-11T11:29:56.234Z,41.10
2018-05-11T11:32:26.299Z,41.10
2018-05-11T11:34:56.394Z,41.00
2018-05-11T11:37:26.810Z,40.90
2018-05-11T11:39:57.681Z,40.90
2018-05-11T11:42:28.099Z,40.80
2018-05-11T11:44:58.192Z,40.90
2018-05-11T11:47:28.675Z,40.80
2018-05-11T11:49:58.890Z,40.50
2018-05-11T11:52:29.299Z,40.50
2018-05-11T11:55:00.150Z,40.40
2018-05-11T11:57:30.763Z,40.30
2018-05-11T12:00:01.599Z,40.30
2018-05-11T12:02:31.687Z,40.10
2018-05-11T12:05:02.883Z,40.90
2018-05-11T12:07:32.955Z,40.20
2018-05-11T12:10:04.095Z,40.70
2018-05-11T12:12:35.646Z,41.00
2018-05-11T12:15:07.171Z,41.70
2018-05-11T12:20:12.522Z,42.40
2018-05-11T12:22:43.103Z,43.10
2018-05-11T12:25:13.212Z,43.60
2018-05-11T12:27:43.823Z,43.70
2018-05-11T12:30:13.938Z,44.50
2018-05-11T12:32:44.086Z,44.60
2018-05-11T12:35:14.539Z,45.40
2018-05-11T12:37:44.687Z,44.80
2018-05-11T12:40:15.133Z,45.80
2018-05-11T12:42:45.811Z,45.80
2018-05-11T12:45:15.994Z,46.30
2018-05-11T12:47:46.606Z,46.50
2018-05-11T12:50:17.247Z,47.10
2018-05-11T12:52:47.703Z,47.30
2018-05-11T12:55:17.936Z,47.50
2018-05-11T12:57:48.343Z,47.50
2018-05-11T13:00:18.995Z,47.70
2018-05-11T13:02:49.067Z,48.10
2018-05-11T13:05:19.939Z,48.40
2018-05-11T13:07:50.022Z,48.40
2018-05-11T13:10:20.442Z,48.70
2018-05-11T13:12:50.534Z,48.70
2018-05-11T13:15:20.798Z,48.60
2018-05-11T13:17:51.392Z,48.90
2018-05-11T13:20:21.567Z,48.90
2018-05-11T13:22:52.098Z,48.80
2018-05-11T13:25:22.738Z,49.10
2018-05-11T13:27:52.810Z,49.10
2018-05-11T13:30:23.442Z,49.10
2018-05-11T13:32:54.248Z,49.20
2018-05-11T13:35:24.877Z,49.50
2018-05-11T13:37:54.954Z,49.50
2018-05-11T13:40:25.145Z,49.80
2018-05-11T13:42:55.544Z,49.60
2018-05-11T13:45:25.627Z,49.70
2018-05-11T13:47:55.726Z,49.60
2018-05-11T13:50:26.924Z,49.50
2018-05-11T13:52:56.990Z,49.50
2018-05-11T13:55:28.388Z,49.50
2018-05-11T13:57:58.974Z,49.50
2018-05-11T14:00:29.064Z,49.40
2018-05-11T14:02:59.146Z,49.40
2018-05-11T14:05:29.570Z,49.50
2018-05-11T14:08:00.215Z,49.40
2018-05-11T14:10:31.577Z,49.50
2018-05-11T14:13:02.154Z,49.50
2018-05-11T14:15:32.238Z,49.40
2018-05-11T14:18:02.654Z,49.40
2018-05-11T14:20:32.747Z,49.60
2018-05-11T14:23:03.666Z,49.90
2018-05-11T14:25:34.256Z,49.90
2018-05-11T14:28:04.663Z,49.80
2018-05-11T14:30:35.519Z,50.10
2018-05-11T14:33:06.124Z,50.10
2018-05-11T14:35:37.486Z,50.60
2018-05-11T14:38:08.126Z,50.10
2018-05-11T14:40:38.234Z,50.20
2018-05-11T14:43:08.931Z,50.30
2018-05-11T14:45:40.343Z,50.40
2018-05-11T14:48:10.927Z,50.30
2018-05-11T14:50:42.324Z,50.30
2018-05-11T14:53:12.416Z,50.30
2018-05-11T14:55:43.289Z,50.30
2018-05-11T14:58:13.983Z,50.30
2018-05-11T15:00:44.079Z,50.90
2018-05-11T15:03:14.167Z,49.90
2018-05-11T15:05:44.608Z,50.20
2018-05-11T15:08:15.163Z,50.20
2018-05-11T15:10:45.272Z,50.30
2018-05-11T15:13:15.903Z,50.30
2018-05-11T15:15:47.116Z,50.30
2018-05-11T15:18:18.451Z,50.50
2018-05-11T15:20:49.045Z,50.50
2018-05-11T15:23:19.615Z,51.20
2018-05-11T15:25:50.484Z,50.00
2018-05-11T15:28:20.559Z,49.90
2018-05-11T15:30:50.696Z,49.30
2018-05-11T15:33:21.128Z,49.50
2018-05-11T15:35:51.980Z,49.60
2018-05-11T15:38:22.070Z,49.60
2018-05-11T15:40:52.521Z,49.70
2018-05-11T15:43:23.144Z,49.70
2018-05-11T15:45:54.007Z,49.60
2018-05-11T15:48:24.414Z,49.60
2018-05-11T15:50:54.874Z,49.70
2018-05-11T15:53:25.499Z,49.60
2018-05-11T15:55:55.593Z,49.60
2018-05-11T15:58:26.000Z,49.60
2018-05-11T16:00:57.403Z,49.60
2018-05-11T16:03:27.487Z,49.60
2018-05-11T16:05:57.387Z,49.50
2018-05-11T16:08:28.042Z,49.50
2018-05-11T16:10:58.672Z,49.40
2018-05-11T16:13:29.283Z,49.40
2018-05-11T16:15:59.873Z,49.20
2018-05-11T16:18:30.490Z,49.30
2018-05-11T16:21:01.082Z,49.20
2018-05-11T16:23:31.155Z,49.20
2018-05-11T16:26:01.246Z,49.20
2018-05-11T16:28:31.335Z,49.20
2018-05-11T16:31:01.755Z,49.10
2018-05-11T16:33:32.384Z,49.10
2018-05-11T16:36:03.017Z,49.00
2018-05-11T16:38:33.675Z,49.10
2018-05-11T16:41:04.117Z,48.90
2018-05-11T16:43:34.698Z,48.90
2018-05-11T16:46:05.059Z,49.50
2018-05-11T16:48:35.135Z,48.80
2018-05-11T16:51:05.198Z,48.80
2018-05-11T16:53:36.271Z,48.80
2018-05-11T16:56:06.391Z,48.70
2018-05-11T16:58:37.247Z,48.70
2018-05-11T17:01:07.905Z,48.60
2018-05-11T17:03:38.354Z,48.50
2018-05-11T17:06:08.962Z,48.50
2018-05-11T17:08:39.028Z,48.50
2018-05-11T17:11:09.890Z,48.50
2018-05-11T17:13:40.597Z,48.40
2018-05-11T17:16:11.234Z,48.40
2018-05-11T17:18:42.390Z,48.80
2018-05-11T17:21:12.823Z,48.30
2018-05-11T17:23:43.646Z,48.30
2018-05-11T17:26:13.741Z,48.30
2018-05-11T17:28:43.867Z,48.30
2018-05-11T17:31:13.960Z,48.50
2018-05-11T17:33:44.647Z,48.50
2018-05-11T17:36:15.536Z,48.40
2018-05-11T17:38:46.247Z,48.40
2018-05-11T17:41:16.375Z,48.30
2018-05-11T17:43:46.767Z,48.30
2018-05-11T17:46:16.892Z,48.20
2018-05-11T17:48:48.343Z,48.10
2018-05-11T17:51:19.214Z,48.20
2018-05-11T17:53:49.082Z,48.10
2018-05-11T17:56:19.608Z,48.10
2018-05-11T17:58:49.678Z,48.10
2018-05-11T18:01:20.292Z,48.20
2018-05-11T18:03:51.119Z,48.20
2018-05-11T18:06:22.291Z,48.10
2018-05-11T18:08:52.907Z,48.10
2018-05-11T18:11:24.304Z,47.90
2018-05-11T18:13:54.856Z,47.90
2018-05-11T18:16:25.524Z,47.90
2018-05-11T18:18:56.041Z,47.50
2018-05-11T18:21:26.823Z,47.80
2018-05-11T18:23:57.425Z,47.70
2018-05-11T18:26:28.300Z,47.90
2018-05-11T18:28:58.383Z,47.50
2018-05-11T18:31:28.881Z,47.50
2018-05-11T18:33:58.976Z,47.50
2018-05-11T18:36:29.101Z,47.40
2018-05-11T18:38:59.544Z,47.30
2018-05-11T18:41:30.116Z,47.40
2018-05-11T18:44:00.227Z,47.40
2018-05-11T18:46:30.091Z,47.30
2018-05-11T18:49:00.500Z,46.80
2018-05-11T18:51:32.070Z,47.20
2018-05-11T18:54:03.716Z,47.20
2018-05-11T18:56:34.966Z,47.00
2018-05-11T18:59:05.387Z,47.00
2018-05-11T19:01:36.784Z,46.80
2018-05-11T19:04:07.521Z,46.80
2018-05-11T19:06:38.149Z,46.80
2018-05-11T19:09:09.340Z,46.80
2018-05-11T19:11:40.200Z,46.70
2018-05-11T19:14:10.330Z,46.70
2018-05-11T19:16:41.050Z,46.60
2018-05-11T19:19:12.383Z,46.70
2018-05-11T19:21:43.260Z,46.50
2018-05-11T19:24:13.371Z,46.50
2018-05-11T19:26:44.138Z,46.50
2018-05-11T19:29:14.739Z,46.40
2018-05-11T19:31:45.188Z,46.40
2018-05-11T19:34:15.321Z,46.50
2018-05-11T19:36:45.754Z,46.30
2018-05-11T19:39:15.819Z,46.30
2018-05-11T19:41:46.692Z,46.20
2018-05-11T19:44:16.801Z,46.10
2018-05-11T19:46:46.912Z,46.20
2018-05-11T19:49:17.995Z,46.10
2018-05-11T19:51:49.631Z,46.10
2018-05-11T19:54:20.310Z,46.20
2018-05-11T19:56:50.955Z,46.10
2018-05-11T19:59:21.808Z,46.60
2018-05-11T20:01:52.230Z,46.40
2018-05-11T20:04:23.108Z,46.20
2018-05-11T20:06:53.227Z,46.20
2018-05-11T20:09:23.382Z,46.20
2018-05-11T20:11:54.018Z,46.30
2018-05-11T20:14:25.183Z,46.30
2018-05-11T20:16:56.571Z,46.20
2018-05-11T20:19:26.633Z,46.20
2018-05-11T20:21:57.055Z,46.20
2018-05-11T20:24:27.123Z,46.30
2018-05-11T20:26:57.567Z,46.30
2018-05-11T20:29:28.172Z,46.20
2018-05-11T20:31:59.042Z,46.20
2018-05-11T20:34:29.451Z,46.20
2018-05-11T20:37:00.307Z,46.20
2018-05-11T20:39:30.899Z,46.20
2018-05-11T20:42:00.995Z,46.10
2018-05-11T20:44:31.904Z,46.10
2018-05-11T20:47:02.831Z,46.10
2018-05-11T20:49:33.254Z,46.10
2018-05-11T20:52:04.114Z,46.70
2018-05-11T20:54:34.172Z,46.10
2018-05-11T20:57:05.370Z,46.10
2018-05-11T20:59:35.978Z,46.00
2018-05-11T21:02:06.851Z,45.90
2018-05-11T21:04:37.254Z,46.00
2018-05-11T21:07:07.367Z,46.00
2018-05-11T21:09:37.852Z,46.10
2018-05-11T21:12:07.945Z,46.00
2018-05-11T21:14:38.466Z,46.00
2018-05-11T21:17:09.424Z,46.00
2018-05-11T21:19:39.835Z,45.90
2018-05-11T21:22:09.923Z,46.00
2018-05-11T21:24:40.323Z,46.00
2018-05-11T21:27:10.452Z,46.00
2018-05-11T21:29:40.694Z,45.90
2018-05-11T21:32:10.786Z,45.90
2018-05-11T21:34:41.474Z,45.90
2018-05-11T21:37:11.581Z,45.70
2018-05-11T21:39:41.982Z,45.90
2018-05-11T21:42:12.074Z,45.90
2018-05-11T21:44:42.482Z,45.90
2018-05-11T21:47:12.574Z,45.80
2018-05-11T21:49:42.987Z,45.80
2018-05-11T21:52:13.070Z,45.90
2018-05-11T21:54:43.477Z,45.80
2018-05-11T21:57:13.586Z,45.70
2018-05-11T21:59:45.250Z,45.70
2018-05-11T22:02:16.103Z,45.70
2018-05-11T22:04:46.811Z,45.70
2018-05-11T22:07:17.671Z,45.80
2018-05-11T22:09:48.383Z,45.80
2018-05-11T22:12:18.866Z,45.70
2018-05-11T22:14:48.930Z,45.70
2018-05-11T22:17:19.049Z,45.60
2018-05-11T22:19:50.432Z,45.60
2018-05-11T22:22:20.534Z,45.70
2018-05-11T22:24:51.231Z,45.70
2018-05-11T22:27:22.755Z,45.70
2018-05-11T22:29:52.838Z,45.70
2018-05-11T22:32:23.611Z,45.70
2018-05-11T22:34:54.040Z,45.70
2018-05-11T22:37:24.155Z,45.60
2018-05-11T22:39:54.561Z,45.70
2018-05-11T22:42:24.655Z,45.70
2018-05-11T22:44:55.059Z,45.70
2018-05-11T22:47:25.146Z,45.70
2018-05-11T22:49:55.554Z,45.60
2018-05-11T22:52:26.407Z,45.60
2018-05-11T22:54:56.830Z,45.60
2018-05-11T22:57:27.283Z,45.60
2018-05-11T22:59:57.116Z,45.70
2018-05-11T23:02:27.751Z,45.60
2018-05-11T23:04:57.811Z,45.60
2018-05-11T23:07:28.226Z,45.70
2018-05-11T23:09:58.389Z,45.60
2018-05-11T23:12:28.927Z,45.80
2018-05-11T23:14:58.994Z,45.70
2018-05-11T23:17:29.430Z,45.60
2018-05-11T23:19:59.511Z,45.70
2018-05-11T23:22:29.228Z,45.70
2018-05-11T23:24:59.498Z,45.70
2018-05-11T23:27:30.361Z,46.40
2018-05-11T23:30:00.781Z,45.70
2018-05-11T23:32:31.630Z,45.60
2018-05-11T23:35:01.998Z,45.60
2018-05-11T23:37:32.167Z,45.70
2018-05-11T23:40:02.550Z,45.60
2018-05-11T23:42:32.392Z,45.60
2018-05-11T23:45:02.817Z,45.60
2018-05-11T23:47:33.669Z,45.10
2018-05-11T23:50:04.380Z,45.60
2018-05-11T23:52:34.468Z,45.50
2018-05-11T23:55:04.874Z,45.60
2018-05-11T23:57:35.166Z,45.50
